Time;durP1;ratioP1;P1;durP2;ratioP2;P2;SDS_P1;SDS_P2;PMS_P1;PMS_P2;Temp;Humidity;BMP_temperature;BMP_pressure;BME280_temperature;BME280_humidity;BME280_pressure;Samples;Min_cycle;Max_cycle;Signal;HPM_P1;HPM_P2
2022/07/04 00:00:48;;;;;;;5.22;2.78;;;;;;;18.43;48.53;101940.56;4979029;28;124616;-65
2022/07/04 00:03:16;;;;;;;5.38;2.72;;;;;;;18.41;48.51;101946.97;4982864;28;115199;-65
2022/07/04 00:05:43;;;;;;;4.28;2.70;;;;;;;18.39;48.71;101955.13;4973382;28;115590;-65
2022/07/04 00:08:10;;;;;;;4.97;2.70;;;;;;;18.35;48.74;101948.22;4969801;28;124525;-66
2022/07/04 00:10:37;;;;;;;4.90;2.63;;;;;;;18.32;49.02;101948.38;4972288;28;124485;-65
2022/07/04 00:13:05;;;;;;;7.15;2.70;;;;;;;18.30;48.92;101947.63;4970491;28;114128;-66
2022/07/04 00:15:32;;;;;;;3.20;2.55;;;;;;;18.26;49.10;101943.41;4985002;28;113746;-66
2022/07/04 00:18:01;;;;;;;5.70;2.90;;;;;;;18.24;49.14;101950.69;4990860;28;123772;-66
2022/07/04 00:20:28;;;;;;;4.65;2.70;;;;;;;18.20;49.11;101957.19;4980459;28;123788;-67
2022/07/04 00:22:56;;;;;;;8.70;2.92;;;;;;;18.16;49.45;101947.56;4977475;28;114589;-66
2022/07/04 00:25:23;;;;;;;6.15;2.92;;;;;;;18.13;49.21;101947.78;4977227;28;114048;-65
2022/07/04 00:27:50;;;;;;;6.28;3.00;;;;;;;18.07;49.31;101944.50;4989667;28;124510;-66
2022/07/04 00:30:17;;;;;;;5.18;3.15;;;;;;;18.05;49.50;101946.41;4991031;28;123142;-66
2022/07/04 00:32:44;;;;;;;7.82;3.60;;;;;;;18.02;49.60;101946.56;4990653;28;114306;-65
2022/07/04 00:35:12;;;;;;;5.20;3.30;;;;;;;18.00;49.48;101942.25;4990778;28;113893;-65
2022/07/04 00:37:39;;;;;;;7.13;3.33;;;;;;;17.96;49.70;101949.63;4982234;28;124459;-65
2022/07/04 00:40:09;;;;;;;5.07;3.22;;;;;;;17.93;50.10;101943.56;4986562;28;124430;-64
2022/07/04 00:42:36;;;;;;;8.65;3.10;;;;;;;17.90;50.03;101937.44;4986040;28;114973;-64
2022/07/04 00:45:03;;;;;;;4.55;3.08;;;;;;;17.88;50.03;101933.13;4983402;28;113798;-64
2022/07/04 00:47:32;;;;;;;4.38;3.17;;;;;;;17.85;50.08;101933.31;4978142;28;124522;-64
2022/07/04 00:50:01;;;;;;;4.53;2.70;;;;;;;17.83;50.02;101941.38;4991068;28;124150;-64
2022/07/04 00:52:28;;;;;;;4.60;3.03;;;;;;;17.81;50.10;101947.81;4991158;28;114159;-64
2022/07/04 00:54:56;;;;;;;5.22;3.42;;;;;;;17.77;50.03;101943.59;4988812;28;114957;-64
2022/07/04 00:57:23;;;;;;;4.93;3.00;;;;;;;17.75;50.22;101942.81;4975715;28;123872;-64
2022/07/04 00:59:50;;;;;;;5.65;3.30;;;;;;;17.70;50.19;101941.22;4990960;28;123135;-64
2022/07/04 01:02:17;;;;;;;6.40;3.58;;;;;;;17.68;50.24;101943.13;4976111;28;114546;-64
2022/07/04 01:04:47;;;;;;;4.75;3.20;;;;;;;17.65;50.38;101946.00;4989979;28;113852;-64
2022/07/04 01:07:15;;;;;;;4.15;3.10;;;;;;;17.62;50.39;101943.50;4990051;28;124403;-64
2022/07/04 01:09:43;;;;;;;4.82;3.40;;;;;;;17.58;50.55;101947.31;4989360;28;125118;-64
2022/07/04 01:12:10;;;;;;;5.18;3.65;;;;;;;17.53;50.53;101938.66;4978311;28;113821;-64
2022/07/04 01:14:38;;;;;;;5.10;3.40;;;;;;;17.51;50.72;101938.75;4987135;28;112952;-67
2022/07/04 01:17:06;;;;;;;5.22;3.33;;;;;;;17.50;50.82;101933.50;4978554;28;124033;-67
2022/07/04 01:19:33;;;;;;;6.63;3.15;;;;;;;17.48;50.86;101930.91;4973678;28;122829;-67
2022/07/04 01:22:06;;;;;;;8.70;3.72;;;;;;;17.46;51.06;101929.25;4983661;28;114684;-67
2022/07/04 01:24:33;;;;;;;8.35;3.40;;;;;;;17.44;50.75;101924.00;4982774;28;113702;-67
2022/07/04 01:27:00;;;;;;;5.57;3.67;;;;;;;17.43;50.78;101921.41;4987906;28;123963;-68
2022/07/04 01:29:28;;;;;;;8.00;3.58;;;;;;;17.41;50.60;101925.97;4989428;28;124229;-68
2022/07/04 01:31:55;;;;;;;6.55;3.75;;;;;;;17.37;50.62;101927.13;4988666;28;115091;-68
2022/07/04 01:34:22;;;;;;;4.00;2.78;;;;;;;17.33;50.66;101926.41;4980765;28;114680;-68
2022/07/04 01:36:49;;;;;;;6.70;3.55;;;;;;;17.28;50.79;101913.28;4978892;28;124969;-69
2022/07/04 01:39:16;;;;;;;5.68;3.38;;;;;;;17.25;50.61;101918.81;4990048;28;123851;-68
2022/07/04 01:41:43;;;;;;;5.47;3.38;;;;;;;17.22;50.75;101918.97;4981720;28;115103;-68
2022/07/04 01:44:10;;;;;;;4.60;3.25;;;;;;;17.19;50.64;101919.13;4982858;28;115272;-68
2022/07/04 01:46:38;;;;;;;4.82;3.10;;;;;;;17.13;50.50;101914.13;4977257;28;124629;-68
2022/07/04 01:49:05;;;;;;;3.72;2.70;;;;;;;17.09;50.49;101912.59;4987424;28;122950;-67
2022/07/04 01:51:32;;;;;;;6.22;3.10;;;;;;;17.04;50.67;101909.28;4989273;28;114553;-67
2022/07/04 01:53:59;;;;;;;4.75;2.95;;;;;;;16.99;50.58;101906.00;4986493;28;114142;-68
2022/07/04 01:56:27;;;;;;;3.42;2.95;;;;;;;16.97;50.71;101907.88;4982054;28;124744;-67
2022/07/04 01:58:54;;;;;;;5.05;2.95;;;;;;;16.92;50.50;101911.69;4990306;28;124807;-67
2022/07/04 02:01:30;;;;;;;6.03;3.45;;;;;;;16.88;50.78;101907.47;4989246;28;114531;-67
2022/07/04 02:03:59;;;;;;;5.43;2.92;;;;;;;16.85;50.76;101899.59;4974890;28;113704;-67
2022/07/04 02:06:26;;;;;;;3.63;2.70;;;;;;;16.81;50.61;101903.34;4990931;28;124545;-68
2022/07/04 02:14:25;;;;;;;4.40;2.80;;;;;;;16.61;50.11;101896.38;4986652;28;113166;-67
2022/07/04 02:16:53;;;;;;;5.30;2.80;;;;;;;16.57;50.20;101893.97;4990585;28;124375;-68
2022/07/04 02:19:20;;;;;;;4.45;3.25;;;;;;;16.52;50.45;101892.41;4990023;28;124514;-67
2022/07/04 02:21:47;;;;;;;5.75;3.35;;;;;;;16.49;50.58;101892.56;4987041;28;114335;-67
2022/07/04 02:24:14;;;;;;;4.13;2.78;;;;;;;16.46;50.62;101898.09;4989051;28;113752;-68
2022/07/04 02:26:41;;;;;;;5.03;3.22;;;;;;;16.43;50.70;101898.25;4986261;28;123831;-67
2022/07/04 02:29:09;;;;;;;6.57;3.47;;;;;;;16.40;50.94;101903.75;4986412;28;124662;-67
2022/07/04 02:31:37;;;;;;;6.63;3.13;;;;;;;16.35;50.96;101900.47;4989233;28;115518;-68
2022/07/04 02:34:04;;;;;;;5.55;2.92;;;;;;;16.31;50.92;101899.75;4970194;28;114365;-67
2022/07/04 02:36:31;;;;;;;3.65;3.00;;;;;;;16.28;50.90;101904.41;4981019;28;123938;-67
2022/07/04 02:38:59;;;;;;;3.90;3.30;;;;;;;16.24;50.88;101902.84;4974402;28;124396;-67
2022/07/04 02:41:26;;;;;;;5.00;3.17;;;;;;;16.21;51.08;101903.00;4977922;28;114272;-67
2022/07/04 02:43:54;;;;;;;3.90;3.30;;;;;;;16.17;51.31;101907.63;4982541;28;113975;-65
2022/07/04 02:46:21;;;;;;;5.28;3.30;;;;;;;16.13;51.50;101904.25;4968544;28;125595;-65
2022/07/04 02:48:48;;;;;;;4.55;3.40;;;;;;;16.10;51.64;101899.03;4985693;28;124221;-65
2022/07/04 02:51:16;;;;;;;5.65;3.45;;;;;;;16.09;51.80;101905.34;4975969;28;114343;-65
2022/07/04 02:53:44;;;;;;;4.28;3.35;;;;;;;16.06;51.93;101900.16;4974074;28;114006;-66
2022/07/04 02:56:11;;;;;;;5.57;3.58;;;;;;;16.06;52.03;101905.50;4972311;28;123554;-65
2022/07/04 02:58:38;;;;;;;5.53;3.88;;;;;;;16.05;52.06;101909.13;4985445;28;123647;-65
2022/07/04 03:01:06;;;;;;;6.88;3.65;;;;;;;16.05;52.28;101909.13;4968880;28;114351;-66
2022/07/04 03:03:33;;;;;;;5.07;3.35;;;;;;;16.04;52.24;101912.72;4978372;28;114203;-66
2022/07/04 03:06:01;;;;;;;4.97;3.40;;;;;;;16.03;52.44;101904.78;4973695;28;124465;-66
2022/07/04 03:08:31;;;;;;;5.57;3.65;;;;;;;16.03;52.52;101911.03;4979729;28;124045;-66
2022/07/04 03:10:58;;;;;;;5.28;3.72;;;;;;;16.03;52.57;101916.34;4981319;28;114412;-66
2022/07/04 03:13:25;;;;;;;6.13;3.65;;;;;;;16.02;52.57;101909.28;4987552;28;113637;-65
2022/07/04 03:15:53;;;;;;;4.80;3.42;;;;;;;16.02;52.46;101914.63;4987371;28;124675;-67
2022/07/04 03:18:21;;;;;;;4.55;3.08;;;;;;;16.01;52.13;101918.25;4986090;28;124189;-67
2022/07/04 03:20:48;;;;;;;5.57;3.20;;;;;;;15.99;52.29;101925.44;4989479;28;115144;-67
2022/07/04 03:23:16;;;;;;;5.38;3.03;;;;;;;15.96;52.24;101925.63;4986979;28;115071;-68
2022/07/04 03:25:43;;;;;;;5.70;3.40;;;;;;;15.93;52.28;101931.97;4987014;28;123975;-68
2022/07/04 03:28:10;;;;;;;5.68;3.75;;;;;;;15.92;52.38;101934.75;4985537;28;124536;-68
2022/07/04 03:30:37;;;;;;;7.13;3.70;;;;;;;15.90;52.47;101937.47;4977580;28;114675;-68
2022/07/04 03:33:05;;;;;;;5.75;3.67;;;;;;;15.91;52.64;101938.34;4988846;28;114616;-68
2022/07/04 03:35:32;;;;;;;6.70;3.58;;;;;;;15.89;52.80;101940.22;4982296;28;124757;-68
2022/07/04 03:37:59;;;;;;;5.43;3.70;;;;;;;15.89;52.94;101935.75;4980880;28;124561;-68
2022/07/04 03:40:30;;;;;;;5.63;3.85;;;;;;;15.90;53.02;101932.13;4989918;28;114108;-68
2022/07/04 03:42:58;;;;;;;5.68;3.80;;;;;;;15.92;52.88;101945.44;4977924;28;114180;-68
2022/07/04 03:45:25;;;;;;;6.07;3.63;;;;;;;15.92;52.81;101937.41;4984235;28;124405;-68
2022/07/04 03:47:53;;;;;;;5.55;3.30;;;;;;;15.91;52.68;101943.69;4971431;28;123095;-68
2022/07/04 03:50:20;;;;;;;4.55;2.97;;;;;;;15.91;52.68;101949.03;4989809;28;114641;-68
2022/07/04 03:52:47;;;;;;;5.00;3.22;;;;;;;15.90;52.34;101947.31;4993514;28;114656;-66
2022/07/04 03:55:15;;;;;;;7.80;3.20;;;;;;;15.88;52.58;101959.84;4993405;28;123788;-66
2022/07/04 03:57:42;;;;;;;6.22;3.42;;;;;;;15.86;52.54;101956.41;4990700;28;124365;-66
2022/07/04 04:00:11;;;;;;;6.85;3.65;;;;;;;15.84;52.72;101958.28;4979411;28;115020;-66
2022/07/04 04:02:39;;;;;;;6.15;3.47;;;;;;;15.84;52.91;101963.63;4980427;28;113298;-65
2022/07/04 04:05:32;;;;;;;6.95;3.75;;;;;;;15.84;53.02;101966.28;4982686;28;123900;-65
2022/07/04 04:08:01;;;;;;;5.45;3.92;;;;;;;15.85;53.32;101965.38;4975903;28;124742;-65
2022/07/04 04:10:33;;;;;;;4.85;3.92;;;;;;;15.88;53.64;101967.88;4991438;28;115238;-65
2022/07/04 04:13:00;;;;;;;7.60;4.78;;;;;;;15.90;53.66;101968.69;4977799;28;114798;-65
2022/07/04 04:15:27;;;;;;;5.75;3.88;;;;;;;15.93;53.91;101973.84;4979768;28;123915;-65
2022/07/04 04:17:54;;;;;;;7.53;4.20;;;;;;;15.97;53.89;101975.44;4986242;28;123883;-67
2022/07/04 04:20:21;;;;;;;9.00;4.70;;;;;;;16.01;54.06;101981.50;4981755;28;114094;-67
2022/07/04 04:22:50;;;;;;;5.75;4.07;;;;;;;16.05;54.07;101989.31;4975915;28;113898;-68
2022/07/04 04:25:17;;;;;;;5.90;3.53;;;;;;;16.09;54.39;101990.88;4971803;28;124157;-68
2022/07/04 04:27:44;;;;;;;5.70;4.10;;;;;;;16.14;54.10;101987.94;4970124;28;123633;-67
2022/07/04 04:30:13;;;;;;;7.82;4.25;;;;;;;16.18;54.51;101983.31;4984481;28;113156;-67
2022/07/04 04:32:40;;;;;;;5.28;3.80;;;;;;;16.22;54.54;101984.88;4997856;28;113940;-67
2022/07/04 04:35:07;;;;;;;5.57;3.65;;;;;;;16.28;54.61;101984.59;4991150;28;123270;-67
2022/07/04 04:37:35;;;;;;;5.80;3.95;;;;;;;16.34;54.56;102000.31;4990563;28;124172;-67
2022/07/04 04:40:02;;;;;;;5.88;3.53;;;;;;;16.39;54.47;101998.28;4990032;28;114990;-67
2022/07/04 04:42:29;;;;;;;8.35;3.58;;;;;;;16.42;54.51;101998.13;4980237;28;113727;-67
2022/07/04 04:44:57;;;;;;;5.03;3.55;;;;;;;16.47;54.68;101996.06;4989965;28;124364;-67
2022/07/04 04:47:24;;;;;;;4.32;3.40;;;;;;;16.53;54.52;102001.09;4976799;28;123864;-66
2022/07/04 04:49:51;;;;;;;6.22;3.70;;;;;;;16.60;54.85;101995.47;4978739;28;114396;-67
2022/07/04 04:52:18;;;;;;;6.60;3.45;;;;;;;16.70;55.19;102002.03;4990866;28;114291;-67
2022/07/04 04:54:45;;;;;;;6.05;3.85;;;;;;;16.83;55.43;101997.81;4991486;28;123876;-67
2022/07/04 04:57:13;;;;;;;4.68;3.10;;;;;;;16.98;55.30;101989.91;4974001;28;123819;-67
2022/07/04 04:59:42;;;;;;;4.85;2.90;;;;;;;17.13;55.41;101989.09;4981070;28;115634;-67
2022/07/04 05:02:09;;;;;;;5.18;3.05;;;;;;;17.27;54.93;101986.53;4990306;28;115335;-67
2022/07/04 05:04:42;;;;;;;9.77;2.92;;;;;;;17.43;54.70;101977.63;4969609;28;123846;-68
2022/07/04 05:07:10;;;;;;;4.10;2.90;;;;;;;17.54;54.48;101983.25;4986764;28;123939;-67
2022/07/04 05:09:37;;;;;;;6.18;3.13;;;;;;;17.64;54.27;101984.47;4987976;28;114309;-67
2022/07/04 05:12:06;;;;;;;5.28;3.08;;;;;;;17.70;53.89;101983.25;4990655;28;114690;-67
2022/07/04 05:14:33;;;;;;;3.78;2.83;;;;;;;17.75;53.89;101974.97;4984774;28;122868;-67
2022/07/04 05:17:00;;;;;;;5.35;3.30;;;;;;;17.79;53.63;101976.50;4980206;28;123687;-64
2022/07/04 05:19:29;;;;;;;6.32;3.00;;;;;;;17.83;53.70;101972.69;4987497;28;114588;-64
2022/07/04 05:21:56;;;;;;;5.40;3.10;;;;;;;17.87;53.47;101985.00;4983314;28;114409;-64
2022/07/04 05:24:23;;;;;;;7.35;3.47;;;;;;;17.89;53.53;101980.41;4984376;28;123284;-64
2022/07/04 05:26:50;;;;;;;6.72;3.42;;;;;;;17.92;53.36;101982.91;4987295;28;125319;-65
2022/07/04 05:29:23;;;;;;;4.72;3.05;;;;;;;17.95;53.49;101982.75;4985983;28;114040;-63
2022/07/04 05:31:50;;;;;;;6.13;3.38;;;;;;;17.99;53.41;101978.94;4985441;28;113738;-64
2022/07/04 05:34:18;;;;;;;5.00;3.40;;;;;;;18.02;53.33;101984.09;4988838;28;124385;-64
2022/07/04 05:36:46;;;;;;;6.70;3.20;;;;;;;18.06;53.40;101984.78;4991367;28;123728;-64
2022/07/04 05:39:13;;;;;;;8.27;3.35;;;;;;;18.12;53.58;101983.56;4989191;28;114553;-66
2022/07/04 05:41:41;;;;;;;5.70;3.50;;;;;;;18.18;53.48;101983.22;4975679;28;113689;-67
2022/07/04 05:44:08;;;;;;;5.78;3.35;;;;;;;18.24;53.61;101982.84;4979805;28;124153;-66
2022/07/04 05:46:35;;;;;;;5.65;3.50;;;;;;;18.32;53.58;101979.72;4969126;28;124029;-67
2022/07/04 05:49:02;;;;;;;8.98;3.47;;;;;;;18.38;53.61;101990.06;4968260;28;115567;-66
2022/07/04 05:51:29;;;;;;;4.95;3.42;;;;;;;18.45;53.66;101986.06;4968979;28;114713;-67
2022/07/04 05:53:57;;;;;;;8.10;3.70;;;;;;;18.52;53.79;101991.94;4989683;28;124028;-67
2022/07/04 05:56:24;;;;;;;7.65;3.67;;;;;;;18.59;53.77;101994.16;4978657;28;124780;-67
2022/07/04 05:58:52;;;;;;;6.63;3.75;;;;;;;18.65;53.86;101992.94;4985604;28;114676;-67
2022/07/04 06:01:20;;;;;;;7.15;3.80;;;;;;;18.73;53.88;101990.63;4979780;28;114276;-67
2022/07/04 06:03:47;;;;;;;6.60;3.45;;;;;;;18.82;54.16;101994.63;4970569;28;124741;-66
2022/07/04 06:06:16;;;;;;;4.95;3.47;;;;;;;18.90;53.87;101992.31;4990373;28;123864;-66
2022/07/04 06:08:43;;;;;;;6.32;3.70;;;;;;;19.00;53.96;101992.59;4976089;28;113953;-66
2022/07/04 06:11:11;;;;;;;5.70;3.63;;;;;;;19.11;53.84;101995.47;4987239;28;113666;-66
2022/07/04 06:13:38;;;;;;;6.82;3.80;;;;;;;19.22;53.73;101992.97;4981413;28;124188;-65
2022/07/04 06:16:05;;;;;;;4.53;3.35;;;;;;;19.34;53.50;101995.84;4986401;28;124398;-65
2022/07/04 06:18:32;;;;;;;6.40;3.85;;;;;;;19.46;53.99;101995.06;4988533;28;114287;-65
2022/07/04 06:20:59;;;;;;;7.53;3.58;;;;;;;19.61;53.73;101988.69;4990284;28;114238;-64
2022/07/04 06:23:26;;;;;;;5.95;3.50;;;;;;;19.79;53.57;101996.53;4987201;28;123823;-65
2022/07/04 06:25:54;;;;;;;9.38;3.40;;;;;;;19.92;53.33;101997.47;4983799;28;124001;-65
2022/07/04 06:28:21;;;;;;;7.45;3.40;;;;;;;20.05;53.03;101996.66;4982460;28;114693;-64
2022/07/04 06:31:08;;;;;;;7.03;3.65;;;;;;;20.14;52.70;101996.03;4985496;28;114569;-64
2022/07/04 06:35:44;;;;;;;5.90;3.33;;;;;;;20.20;52.49;102001.84;4984525;28;124010;-64
2022/07/04 06:36:23;;;;;;;6.07;3.75;;;;;;;20.27;52.32;102002.31;4984070;28;124352;-64
2022/07/04 06:38:50;;;;;;;7.50;3.83;;;;;;;20.30;52.23;102007.47;4984290;28;116207;-64
2022/07/04 06:41:18;;;;;;;8.65;3.90;;;;;;;20.34;52.17;102003.63;4989552;28;113935;-65
2022/07/04 06:43:45;;;;;;;6.07;3.80;;;;;;;20.43;52.29;101989.53;4985781;28;124898;-65
2022/07/04 06:46:12;;;;;;;7.82;3.60;;;;;;;20.55;52.25;102000.41;4977647;28;124049;-64
2022/07/04 06:48:39;;;;;;;6.57;3.80;;;;;;;20.70;52.00;101995.84;4978545;28;114038;-65
2022/07/04 06:51:07;;;;;;;6.78;3.10;;;;;;;20.83;51.92;101994.00;4971660;28;113701;-65
2022/07/04 06:53:34;;;;;;;7.13;3.15;;;;;;;20.97;51.86;102001.13;4982269;28;123951;-65
2022/07/04 06:56:01;;;;;;;6.28;2.53;;;;;;;21.12;51.40;101999.19;4975809;28;122777;-65
2022/07/04 06:58:28;;;;;;;5.45;2.67;;;;;;;21.25;51.29;101989.25;4982524;28;114916;-65
2022/07/04 07:00:55;;;;;;;6.32;2.78;;;;;;;21.39;51.11;101990.94;4985791;28;116290;-64
2022/07/04 07:03:23;;;;;;;4.82;2.83;;;;;;;21.57;51.11;101989.63;4989036;28;123593;-65
2022/07/04 07:05:50;;;;;;;3.90;2.78;;;;;;;21.79;50.85;102004.22;4987919;28;124072;-65
2022/07/04 07:08:26;;;;;;;7.30;2.78;;;;;;;21.94;50.41;102003.09;4985932;28;114137;-64
2022/07/04 07:11:12;;;;;;;7.15;2.70;;;;;;;22.03;50.24;102006.06;4989269;28;114240;-65
2022/07/04 07:13:48;;;;;;;4.40;2.53;;;;;;;22.13;49.73;101996.28;4978219;28;124771;-65
2022/07/04 07:16:15;;;;;;;;;;;;;;;22.18;49.92;101994.09;4976368;28;124557;-65
2022/07/04 07:18:44;;;;;;;5.82;2.80;;;;;;;22.26;49.50;101991.69;4986584;28;114425;-65
2022/07/04 07:21:11;;;;;;;4.95;3.00;;;;;;;22.31;49.09;101989.53;4992786;28;114870;-65
2022/07/04 07:23:41;;;;;;;4.82;2.50;;;;;;;22.41;49.31;101988.81;4990461;28;124525;-65
2022/07/04 07:26:09;;;;;;;7.10;2.60;;;;;;;22.53;49.32;101990.56;4983606;28;124722;-65
2022/07/04 07:28:36;;;;;;;4.20;2.60;;;;;;;22.67;49.23;101982.25;4988384;28;115326;-65
2022/07/04 07:31:04;;;;;;;5.40;2.65;;;;;;;22.84;49.39;101971.97;4988671;28;115224;-65
2022/07/04 07:33:31;;;;;;;5.07;2.88;;;;;;;22.98;48.89;101971.72;4987818;28;123844;-65
2022/07/04 07:35:58;;;;;;;6.18;2.38;;;;;;;23.04;48.22;101982.06;4988244;28;123821;-65
2022/07/04 07:38:25;;;;;;;4.13;2.33;;;;;;;23.03;47.89;101987.56;4988578;28;114605;-65
2022/07/04 07:40:52;;;;;;;4.32;2.20;;;;;;;23.02;47.70;101992.13;4990277;28;114109;-65
2022/07/04 07:43:19;;;;;;;4.63;2.00;;;;;;;23.07;47.77;101992.63;4978766;28;124297;-65
2022/07/04 07:45:46;;;;;;;7.45;2.75;;;;;;;23.19;47.94;101995.31;4980752;28;123711;-65
2022/07/04 07:48:14;;;;;;;5.30;2.25;;;;;;;23.32;47.91;102001.50;4986258;28;114350;-65
2022/07/04 07:50:41;;;;;;;5.75;2.40;;;;;;;23.46;47.76;101987.69;4979503;28;114120;-64
2022/07/04 07:53:08;;;;;;;5.80;2.15;;;;;;;23.61;47.50;101990.13;4989792;28;124837;-65
2022/07/04 07:55:35;;;;;;;4.55;2.40;;;;;;;23.71;47.17;101991.06;4992713;28;124837;-65
2022/07/04 07:58:02;;;;;;;5.30;2.17;;;;;;;23.80;47.07;101978.69;4982200;28;115098;-65
2022/07/04 08:00:29;;;;;;;6.45;3.17;;;;;;;23.93;47.05;101978.50;4987872;28;113813;-65
2022/07/04 08:06:02;;;;;;;4.43;2.15;;;;;;;24.20;46.51;101970.75;4985715;28;123918;-65
2022/07/04 08:08:30;;;;;;;4.78;2.20;;;;;;;24.31;46.41;101971.69;4991133;28;113948;-65
2022/07/04 08:10:57;;;;;;;7.40;2.30;;;;;;;24.41;46.23;101961.78;4992703;28;112567;-65
2022/07/04 08:13:24;;;;;;;4.78;2.20;;;;;;;24.51;46.00;101956.44;4981381;28;123589;-65
2022/07/04 08:15:52;;;;;;;4.05;2.20;;;;;;;24.60;45.90;101967.38;4985110;28;124523;-65
2022/07/04 08:18:19;;;;;;;4.97;2.00;;;;;;;24.68;45.53;101970.25;4989487;28;115905;-65
2022/07/04 08:20:46;;;;;;;6.57;1.85;;;;;;;24.76;45.24;101963.31;4993731;28;114825;-65
2022/07/04 08:23:31;;;;;;;5.15;1.92;;;;;;;24.87;45.08;101965.94;4992090;28;123123;-65
2022/07/04 08:25:59;;;;;;;6.45;2.03;;;;;;;24.97;44.77;101964.09;4992320;28;123936;-65
2022/07/04 08:28:27;;;;;;;5.10;2.20;;;;;;;25.03;44.71;101969.00;4990365;28;113801;-65
2022/07/04 08:30:56;;;;;;;5.25;2.25;;;;;;;25.06;44.46;101974.13;4979254;28;114047;-66
2022/07/04 08:33:24;;;;;;;4.95;2.50;;;;;;;25.11;44.30;101960.19;4976937;28;124045;-65
2022/07/04 08:35:53;;;;;;;6.70;2.33;;;;;;;25.19;44.59;101962.22;4982111;28;124255;-65
2022/07/04 08:38:21;;;;;;;4.78;1.50;;;;;;;25.30;44.41;101963.97;4989217;28;114933;-66
2022/07/04 08:40:54;;;;;;;3.75;1.92;;;;;;;25.41;44.51;101967.44;4993273;28;113929;-65
2022/07/04 08:43:23;;;;;;;5.90;2.25;;;;;;;25.57;44.39;101977.75;4990322;28;124740;-65
2022/07/04 08:45:53;;;;;;;3.67;1.95;;;;;;;25.70;44.08;101982.91;4988981;28;124135;-65
2022/07/04 08:48:42;;;;;;;3.30;1.73;;;;;;;25.81;43.65;101976.50;4991601;28;114235;-65
2022/07/04 08:51:14;;;;;;;3.58;1.95;;;;;;;25.89;43.36;101981.22;4989002;28;114015;-65
2022/07/04 08:53:52;;;;;;;4.78;2.20;;;;;;;25.95;43.45;101977.97;4973360;28;124396;-65
2022/07/04 08:59:07;;;;;;;4.80;1.80;;;;;;;26.12;43.43;101974.53;4972493;28;114087;-65
2022/07/04 09:01:39;;;;;;;4.85;2.00;;;;;;;26.22;42.98;101988.97;4981618;28;113811;-65
2022/07/04 09:04:08;;;;;;;5.07;1.98;;;;;;;26.33;42.97;101978.94;4975425;28;124462;-65
2022/07/04 09:06:36;;;;;;;3.75;1.83;;;;;;;26.39;42.32;101984.69;4991629;28;122890;-65
2022/07/04 09:09:04;;;;;;;3.17;1.50;;;;;;;26.43;42.16;101990.69;4975742;28;115105;-65
2022/07/04 09:11:33;;;;;;;4.78;1.58;;;;;;;26.43;41.88;101985.25;4979069;28;114729;-65
2022/07/04 09:14:00;;;;;;;3.25;1.50;;;;;;;26.42;41.71;101988.94;4989506;28;124151;-65
2022/07/04 09:16:27;;;;;;;2.53;1.35;;;;;;;26.45;41.88;101980.53;4976085;28;124050;-65
2022/07/04 09:18:55;;;;;;;3.00;1.50;;;;;;;26.52;41.78;101978.06;4989147;28;114389;-65
2022/07/04 09:21:43;;;;;;;3.60;1.60;;;;;;;26.65;42.18;101977.78;4988797;28;113371;-65
2022/07/04 09:24:10;;;;;;;4.47;2.10;;;;;;;26.76;41.41;101974.91;4984334;28;124848;-65
2022/07/04 09:26:43;;;;;;;2.88;1.50;;;;;;;26.85;40.84;101978.59;4989353;28;123688;-65
2022/07/04 09:29:10;;;;;;;2.72;1.08;;;;;;;26.91;41.05;101973.41;4989178;28;114136;-65
2022/07/04 09:31:38;;;;;;;3.35;1.65;;;;;;;26.93;40.50;101971.38;4976614;28;113704;-65
2022/07/04 09:34:07;;;;;;;5.47;1.58;;;;;;;26.93;40.32;101976.81;4988622;28;124023;-65
2022/07/04 09:36:43;;;;;;;3.80;1.63;;;;;;;26.96;40.12;101979.25;4988393;28;124710;-65
2022/07/04 09:39:19;;;;;;;2.22;1.20;;;;;;;27.01;39.70;101973.34;4989306;28;114666;-65
2022/07/04 09:42:03;;;;;;;3.13;1.10;;;;;;;27.07;40.13;101980.94;4985334;28;114375;-65
2022/07/04 09:44:45;;;;;;;3.15;1.20;;;;;;;27.12;39.57;101980.47;4979529;28;125137;-65
2022/07/04 09:47:30;;;;;;;3.22;1.30;;;;;;;27.15;39.11;101980.19;4981160;28;123678;-65
2022/07/04 09:50:09;;;;;;;2.90;1.40;;;;;;;27.21;39.66;101971.41;4988600;28;114126;-66
2022/07/04 09:53:00;;;;;;;3.10;1.40;;;;;;;27.27;39.39;101972.72;4983833;28;113869;-65
2022/07/04 09:55:31;;;;;;;3.50;1.55;;;;;;;27.31;39.15;101979.56;4974552;28;122961;-65
2022/07/04 09:58:01;;;;;;;3.78;1.40;;;;;;;27.33;38.62;101978.41;4982778;28;124609;-65
2022/07/04 10:00:33;;;;;;;3.83;1.42;;;;;;;27.32;38.84;101976.69;4983317;28;115267;-65
2022/07/04 10:03:28;;;;;;;3.35;1.30;;;;;;;27.26;38.99;101982.75;4977477;28;114765;-66
2022/07/04 10:06:06;;;;;;;2.70;1.40;;;;;;;27.27;38.77;101979.00;4985610;28;124409;-66
2022/07/04 10:08:34;;;;;;;3.17;1.50;;;;;;;27.31;39.11;101972.28;4977378;28;123916;-66
2022/07/04 10:11:03;;;;;;;3.17;1.67;;;;;;;27.35;38.83;101965.50;4988428;28;113142;-65
2022/07/04 10:13:36;;;;;;;3.00;1.60;;;;;;;27.42;38.81;101964.91;4970453;28;113865;-64
2022/07/04 10:16:04;;;;;;;3.33;1.33;;;;;;;27.51;38.61;101969.44;4982256;28;124027;-65
2022/07/04 10:18:31;;;;;;;3.65;1.35;;;;;;;27.57;38.55;101957.91;4976845;28;125321;-65
2022/07/04 10:20:58;;;;;;;2.95;1.20;;;;;;;27.67;38.87;101969.63;4974534;28;114593;-65
2022/07/04 10:23:31;;;;;;;3.85;1.40;;;;;;;27.75;38.62;101953.34;4978216;28;113300;-66
2022/07/04 10:25:59;;;;;;;3.13;1.17;;;;;;;27.86;38.83;101956.84;4985863;28;124464;-65
2022/07/04 10:28:26;;;;;;;3.75;1.40;;;;;;;27.96;38.45;101950.34;4986918;28;123839;-66
2022/07/04 10:30:56;;;;;;;2.85;1.30;;;;;;;28.05;37.95;101951.28;4987423;28;113161;-65
2022/07/04 10:33:27;;;;;;;2.92;1.40;;;;;;;28.10;37.63;101943.47;4985793;28;113995;-65
2022/07/04 10:35:57;;;;;;;2.90;1.73;;;;;;;28.12;37.71;101946.91;4983268;28;124083;-65
2022/07/04 10:38:26;;;;;;;8.70;1.77;;;;;;;28.17;37.31;101948.31;4984949;28;124174;-65
2022/07/04 10:40:59;;;;;;;3.33;1.35;;;;;;;28.19;36.85;101951.72;4986457;28;114677;-65
2022/07/04 10:43:41;;;;;;;3.92;1.42;;;;;;;28.17;36.92;101938.25;4986787;28;113882;-65
2022/07/04 10:46:14;;;;;;;2.75;1.33;;;;;;;28.14;36.83;101944.88;4976241;28;124684;-67
2022/07/04 10:48:48;;;;;;;4.45;1.13;;;;;;;28.11;37.51;101945.19;4982705;28;123367;-66
2022/07/04 10:51:32;;;;;;;2.93;1.43;;;;;;;28.13;37.41;101943.16;4980354;28;115570;-66
2022/07/04 10:54:03;;;;;;;4.35;1.20;;;;;;;28.17;37.16;101937.41;4975957;28;114446;-66
2022/07/04 10:56:34;;;;;;;2.28;1.33;;;;;;;28.15;36.89;101935.69;4984784;28;124770;-67
2022/07/04 10:59:25;;;;;;;2.17;1.17;;;;;;;28.14;37.14;101939.44;4985122;28;124220;-65
2022/07/04 11:02:13;;;;;;;4.63;1.35;;;;;;;28.14;36.74;101927.66;5000908;28;114098;-65
2022/07/04 11:05:02;;;;;;;2.25;1.20;;;;;;;28.15;37.11;101934.84;4985158;28;114037;-66
2022/07/04 11:07:30;;;;;;;5.80;1.60;;;;;;;28.18;37.52;101936.38;4984333;28;123959;-67
2022/07/04 11:10:21;;;;;;;3.03;1.40;;;;;;;28.20;36.87;101926.19;4989069;28;124054;-66
2022/07/04 11:12:54;;;;;;;4.25;1.40;;;;;;;28.17;36.55;101927.34;4985153;28;114269;-67
2022/07/04 11:15:32;;;;;;;3.35;1.50;;;;;;;28.21;36.79;101927.91;4987746;28;112839;-66
2022/07/04 11:18:13;;;;;;;4.03;1.50;;;;;;;28.22;36.89;101932.31;4982583;28;124355;-66
2022/07/04 11:20:47;;;;;;;5.32;1.58;;;;;;;28.24;36.62;101919.41;4985682;28;124542;-66
2022/07/04 11:23:19;;;;;;;3.05;1.33;;;;;;;28.26;36.92;101922.84;4984726;28;114129;-66
2022/07/04 11:25:50;;;;;;;2.88;1.27;;;;;;;28.28;36.33;101929.81;4987452;28;114829;-66
2022/07/04 11:28:19;;;;;;;3.53;1.42;;;;;;;28.23;36.09;101923.16;4983023;28;124836;-67
2022/07/04 11:31:06;;;;;;;2.78;1.27;;;;;;;28.15;36.47;101919.34;4985560;28;124380;-66
2022/07/04 11:33:35;;;;;;;3.08;1.48;;;;;;;28.10;36.38;101921.66;4984460;28;114293;-66
2022/07/04 11:36:14;;;;;;;6.38;1.27;;;;;;;28.05;36.16;101924.03;4989736;28;113524;-66
2022/07/04 11:38:55;;;;;;;3.00;1.50;;;;;;;28.02;36.34;101924.34;4983270;28;124044;-66